createdAt,value
2019-02-03T00:00:32.732Z,1007.11
2019-02-03T00:01:33.365Z,1007.1
2019-02-03T00:02:32.583Z,1007.17
2019-02-03T00:03:32.818Z,1007.13
2019-02-03T00:04:32.779Z,1007.14
2019-02-03T00:05:32.584Z,1007.14
2019-02-03T00:06:32.707Z,1007.16
2019-02-03T00:07:32.864Z,1007.17
2019-02-03T00:08:32.558Z,1007.15
2019-02-03T00:09:32.437Z,1007.17
2019-02-03T00:10:32.459Z,1007.13
2019-02-03T00:11:32.634Z,1007.12
2019-02-03T00:12:32.893Z,1007.15
2019-02-03T00:13:32.693Z,1007.14
2019-02-03T00:14:32.594Z,1007.19
2019-02-03T00:15:32.462Z,1007.13
2019-02-03T00:16:32.461Z,1007.11
2019-02-03T00:17:32.413Z,1007.11
2019-02-03T00:18:34.779Z,1007.12
2019-02-03T00:19:32.833Z,1007.07
2019-02-03T00:20:32.547Z,1007.05
2019-02-03T00:21:32.466Z,1007.07
2019-02-03T00:22:32.420Z,1007.07
2019-02-03T00:23:32.716Z,1007.1
2019-02-03T00:24:32.425Z,1007.11
2019-02-03T00:25:32.517Z,1007.09
2019-02-03T00:26:32.464Z,1007.1
2019-02-03T00:27:32.461Z,1007.11
2019-02-03T00:28:32.425Z,1007.08
2019-02-03T00:29:32.536Z,1007.07
2019-02-03T00:30:33.131Z,1007.09
2019-02-03T00:31:33.119Z,1007.07
2019-02-03T00:32:32.439Z,1007.11
2019-02-03T00:33:32.570Z,1007.05
2019-02-03T00:34:32.435Z,1007.08
2019-02-03T00:35:33.423Z,1007.06
2019-02-03T00:36:32.379Z,1007.04
2019-02-03T00:37:32.613Z,1007.05
2019-02-03T00:38:32.629Z,1007.05
2019-02-03T00:39:32.949Z,1007.04
2019-02-03T00:40:32.734Z,1007.07
2019-02-03T00:41:32.584Z,1007.05
2019-02-03T00:42:32.476Z,1007.06
2019-02-03T00:43:32.523Z,1007.07
2019-02-03T00:44:32.505Z,1007.05
2019-02-03T00:45:32.814Z,1007.06
2019-02-03T00:46:32.899Z,1007.04
2019-02-03T00:47:32.551Z,1007.06
2019-02-03T00:48:32.724Z,1007.07
2019-02-03T00:49:32.416Z,1007.1
2019-02-03T00:50:32.660Z,1007.1
2019-02-03T00:51:32.469Z,1007.11
2019-02-03T00:52:32.548Z,1007.12
2019-02-03T00:53:32.389Z,1007.19
2019-02-03T00:54:32.674Z,1007.18
2019-02-03T00:55:32.784Z,1007.16
2019-02-03T00:56:32.558Z,1007.18
2019-02-03T00:57:32.624Z,1007.2
2019-02-03T00:58:33.211Z,1007.24
2019-02-03T00:59:32.339Z,1007.22
2019-02-03T01:00:32.572Z,1007.26
2019-02-03T01:01:32.625Z,1007.3
2019-02-03T01:02:32.833Z,1007.27
2019-02-03T01:03:34.156Z,1007.29
2019-02-03T01:04:32.726Z,1007.33
2019-02-03T01:05:32.499Z,1007.32
2019-02-03T01:06:32.481Z,1007.31
2019-02-03T01:07:32.324Z,1007.3
2019-02-03T01:08:32.342Z,1007.33
2019-02-03T01:09:34.092Z,1007.36
2019-02-03T01:10:32.515Z,1007.33
2019-02-03T01:11:32.382Z,1007.39
2019-02-03T01:12:32.779Z,1007.39
2019-02-03T01:13:32.808Z,1007.39
2019-02-03T01:14:32.313Z,1007.4
2019-02-03T01:15:32.723Z,1007.42
2019-02-03T01:16:32.653Z,1007.42
2019-02-03T01:17:32.349Z,1007.43
2019-02-03T01:18:32.628Z,1007.43
2019-02-03T01:19:32.430Z,1007.47
2019-02-03T01:20:33.041Z,1007.48
2019-02-03T01:21:34.166Z,1007.52
2019-02-03T01:22:32.517Z,1007.56
2019-02-03T01:23:32.700Z,1007.63
2019-02-03T01:24:32.391Z,1007.62
2019-02-03T01:25:32.554Z,1007.64
2019-02-03T01:26:32.294Z,1007.6
2019-02-03T01:27:32.479Z,1007.67
2019-02-03T01:28:32.786Z,1007.63
2019-02-03T01:29:32.913Z,1007.61
2019-02-03T01:30:32.522Z,1007.61
2019-02-03T01:31:32.439Z,1007.6
2019-02-03T01:32:32.321Z,1007.56
2019-02-03T01:33:32.445Z,1007.61
2019-02-03T01:34:32.636Z,1007.61
2019-02-03T01:35:32.353Z,1007.56
2019-02-03T01:36:32.738Z,1007.58
2019-02-03T01:37:40.928Z,1007.6
2019-02-03T01:38:32.300Z,1007.6
2019-02-03T01:39:32.976Z,1007.55
2019-02-03T01:40:32.480Z,1007.56
2019-02-03T01:41:32.389Z,1007.55
2019-02-03T01:42:32.418Z,1007.52
2019-02-03T01:43:32.296Z,1007.51
2019-02-03T01:44:32.999Z,1007.57
2019-02-03T01:45:32.402Z,1007.56
2019-02-03T01:46:32.307Z,1007.55
2019-02-03T01:47:32.313Z,1007.54
2019-02-03T01:48:32.355Z,1007.59
2019-02-03T01:49:32.530Z,1007.55
2019-02-03T01:50:32.363Z,1007.6
2019-02-03T01:51:32.291Z,1007.63
2019-02-03T01:52:32.499Z,1007.67
2019-02-03T01:53:32.479Z,1007.66
2019-02-03T01:54:32.314Z,1007.71
2019-02-03T01:55:32.270Z,1007.7
2019-02-03T01:56:32.315Z,1007.74
2019-02-03T01:57:32.276Z,1007.76
2019-02-03T01:58:32.239Z,1007.77
2019-02-03T01:59:32.275Z,1007.78
2019-02-03T02:00:32.280Z,1007.77
2019-02-03T02:01:32.596Z,1007.76
2019-02-03T02:02:32.254Z,1007.74
2019-02-03T02:03:32.250Z,1007.69
2019-02-03T02:04:32.308Z,1007.76
2019-02-03T02:05:32.257Z,1007.73
2019-02-03T02:06:32.293Z,1007.69
2019-02-03T02:07:32.268Z,1007.69
2019-02-03T02:08:32.253Z,1007.66
2019-02-03T02:09:32.243Z,1007.62
2019-02-03T02:10:32.258Z,1007.6
2019-02-03T02:11:32.703Z,1007.59
2019-02-03T02:12:32.340Z,1007.6
2019-02-03T02:13:32.353Z,1007.55
2019-02-03T02:14:32.447Z,1007.56
2019-02-03T02:15:32.276Z,1007.55
2019-02-03T02:16:32.282Z,1007.57
2019-02-03T02:17:34.456Z,1007.56
2019-02-03T02:18:32.523Z,1007.61
2019-02-03T02:19:32.228Z,1007.55
2019-02-03T02:20:32.554Z,1007.63
2019-02-03T02:21:32.273Z,1007.74
2019-02-03T02:22:32.566Z,1007.81
2019-02-03T02:23:32.294Z,1007.89
2019-02-03T02:24:33.701Z,1007.99
2019-02-03T02:25:32.339Z,1008.05
2019-02-03T02:26:32.995Z,1008.13
2019-02-03T02:27:32.244Z,1008.17
2019-02-03T02:28:32.208Z,1008.18
2019-02-03T02:29:32.276Z,1008.24
2019-02-03T02:30:32.541Z,1008.26
2019-02-03T02:31:32.251Z,1008.33
2019-02-03T02:32:34.041Z,1008.36
2019-02-03T02:33:32.185Z,1008.47
2019-02-03T02:34:32.544Z,1008.48
2019-02-03T02:35:32.257Z,1008.51
2019-02-03T02:36:32.599Z,1008.51
2019-02-03T02:37:32.190Z,1008.52
2019-02-03T02:38:32.162Z,1008.53
2019-02-03T02:39:35.514Z,1008.5
2019-02-03T02:40:32.297Z,1008.54
2019-02-03T02:41:32.495Z,1008.52
2019-02-03T02:42:32.247Z,1008.58
2019-02-03T02:43:32.221Z,1008.61
2019-02-03T02:44:32.330Z,1008.58
2019-02-03T02:45:32.219Z,1008.61
2019-02-03T02:46:32.523Z,1008.65
2019-02-03T02:47:32.247Z,1008.68
2019-02-03T02:48:32.264Z,1008.68
2019-02-03T02:49:32.378Z,1008.81
2019-02-03T02:50:32.218Z,1008.82
2019-02-03T02:51:33.987Z,1008.88
2019-02-03T02:52:32.290Z,1008.88
2019-02-03T02:53:33.992Z,1008.98
2019-02-03T02:54:32.273Z,1008.97
2019-02-03T02:55:32.428Z,1009.03
2019-02-03T02:56:32.683Z,1009.06
2019-02-03T02:57:33.086Z,1009.09
2019-02-03T02:58:32.193Z,1009.1
2019-02-03T02:59:32.182Z,1009.2
2019-02-03T03:00:33.984Z,1009.24
2019-02-03T03:01:32.431Z,1009.29
2019-02-03T03:02:32.175Z,1009.37
2019-02-03T03:03:32.444Z,1009.42
2019-02-03T03:04:32.219Z,1009.42
2019-02-03T03:05:32.364Z,1009.43
2019-02-03T03:06:32.469Z,1009.43
2019-02-03T03:07:32.223Z,1009.4
2019-02-03T03:08:32.160Z,1009.43
2019-02-03T03:09:32.486Z,1009.43
2019-02-03T03:10:32.482Z,1009.4
2019-02-03T03:11:32.350Z,1009.37
2019-02-03T03:12:32.633Z,1009.42
2019-02-03T03:13:32.593Z,1009.46
2019-02-03T03:14:32.152Z,1009.49
2019-02-03T03:15:32.326Z,1009.49
2019-02-03T03:16:32.348Z,1009.54
2019-02-03T03:17:32.263Z,1009.5
2019-02-03T03:18:32.218Z,1009.49
2019-02-03T03:19:32.140Z,1009.49
2019-02-03T03:20:32.239Z,1009.46
2019-02-03T03:21:33.058Z,1009.46
2019-02-03T03:22:32.157Z,1009.45
2019-02-03T03:23:32.400Z,1009.47
2019-02-03T03:24:32.269Z,1009.39
2019-02-03T03:25:32.119Z,1009.45
2019-02-03T03:26:32.155Z,1009.48
2019-02-03T03:27:32.716Z,1009.48
2019-02-03T03:28:32.179Z,1009.56
2019-02-03T03:29:34.346Z,1009.5
2019-02-03T03:30:32.259Z,1009.56
2019-02-03T03:31:32.395Z,1009.58
2019-02-03T03:32:32.237Z,1009.63
2019-02-03T03:33:32.180Z,1009.6
2019-02-03T03:34:32.129Z,1009.6
2019-02-03T03:35:34.900Z,1009.62
2019-02-03T03:36:32.132Z,1009.68
2019-02-03T03:37:32.659Z,1009.63
2019-02-03T03:38:32.797Z,1009.64
2019-02-03T03:39:32.277Z,1009.65
2019-02-03T03:40:32.106Z,1009.63
2019-02-03T03:41:32.117Z,1009.62
2019-02-03T03:42:32.194Z,1009.67
2019-02-03T03:43:32.144Z,1009.66
2019-02-03T03:44:32.187Z,1009.65
2019-02-03T03:45:32.716Z,1009.66
2019-02-03T03:46:32.432Z,1009.62
2019-02-03T03:47:32.167Z,1009.64
2019-02-03T03:48:32.167Z,1009.63
2019-02-03T03:49:32.206Z,1009.66
2019-02-03T03:50:32.105Z,1009.66
2019-02-03T03:51:32.135Z,1009.71
2019-02-03T03:52:32.093Z,1009.76
2019-02-03T03:53:32.613Z,1009.74
2019-02-03T03:54:32.496Z,1009.75
2019-02-03T03:55:32.082Z,1009.76
2019-02-03T03:56:32.245Z,1009.78
2019-02-03T03:57:32.148Z,1009.8
2019-02-03T03:58:32.057Z,1009.8
2019-02-03T03:59:32.247Z,1009.81
2019-02-03T04:00:32.223Z,1009.86
2019-02-03T04:01:32.304Z,1009.91
2019-02-03T04:02:32.224Z,1009.9
2019-02-03T04:03:32.194Z,1009.89
2019-02-03T04:04:32.558Z,1009.94
2019-02-03T04:05:32.072Z,1009.98
2019-02-03T04:06:32.242Z,1009.97
2019-02-03T04:07:32.166Z,1009.99
2019-02-03T04:08:45.640Z,1010
2019-02-03T04:09:32.366Z,1010.02
2019-02-03T04:10:32.051Z,1010.01
2019-02-03T04:11:32.109Z,1010.02
2019-02-03T04:12:32.134Z,1010.01
2019-02-03T04:13:32.726Z,1010.06
2019-02-03T04:14:32.172Z,1010.07
2019-02-03T04:15:32.325Z,1010.08
2019-02-03T04:16:32.433Z,1010.06
2019-02-03T04:17:32.104Z,1010.04
2019-02-03T04:18:32.164Z,1010.06
2019-02-03T04:19:32.498Z,1010.03
2019-02-03T04:20:32.677Z,1010.08
2019-02-03T04:21:32.783Z,1010.05
2019-02-03T04:22:32.092Z,1010.04
2019-02-03T04:23:32.044Z,1010.06
2019-02-03T04:24:32.051Z,1010.09
2019-02-03T04:25:32.104Z,1010.08
2019-02-03T04:26:32.064Z,1010.12
2019-02-03T04:27:32.299Z,1010.07
2019-02-03T04:28:32.048Z,1010.01
2019-02-03T04:29:32.365Z,1010.08
2019-02-03T04:30:32.319Z,1010.08
2019-02-03T04:31:32.071Z,1010.11
2019-02-03T04:32:32.371Z,1010.09
2019-02-03T04:33:32.028Z,1010.14
2019-02-03T04:34:32.035Z,1010.17
2019-02-03T04:35:32.456Z,1010.1
2019-02-03T04:36:32.252Z,1010.14
2019-02-03T04:37:32.281Z,1010.21
2019-02-03T04:38:32.061Z,1010.17
2019-02-03T04:39:32.275Z,1010.19
2019-02-03T04:40:32.099Z,1010.27
2019-02-03T04:41:32.029Z,1010.27
2019-02-03T04:42:32.388Z,1010.28
2019-02-03T04:43:32.304Z,1010.25
2019-02-03T04:44:32.313Z,1010.33
2019-02-03T04:45:32.010Z,1010.39
2019-02-03T04:46:32.650Z,1010.31
2019-02-03T04:47:32.159Z,1010.34
2019-02-03T04:48:32.856Z,1010.41
2019-02-03T04:49:32.368Z,1010.39
2019-02-03T04:50:35.414Z,1010.4
2019-02-03T04:51:32.089Z,1010.38
2019-02-03T04:52:32.009Z,1010.48
2019-02-03T04:53:32.294Z,1010.45
2019-02-03T04:54:32.393Z,1010.42
2019-02-03T04:55:33.308Z,1010.49
2019-02-03T04:56:33.787Z,1010.57
2019-02-03T04:57:32.191Z,1010.57
2019-02-03T04:58:32.216Z,1010.51
2019-02-03T04:59:32.205Z,1010.55
2019-02-03T05:00:32.331Z,1010.53
2019-02-03T05:01:32.217Z,1010.53
2019-02-03T05:02:32.442Z,1010.57
2019-02-03T05:03:32.045Z,1010.57
2019-02-03T05:04:31.968Z,1010.63
2019-02-03T05:05:32.000Z,1010.6
2019-02-03T05:06:32.453Z,1010.67
2019-02-03T05:07:32.063Z,1010.65
2019-02-03T05:08:32.001Z,1010.72
2019-02-03T05:09:32.385Z,1010.67
2019-02-03T05:10:32.000Z,1010.74
2019-02-03T05:11:31.979Z,1010.73
2019-02-03T05:12:32.063Z,1010.81
2019-02-03T05:13:32.431Z,1010.83
2019-02-03T05:14:32.614Z,1010.78
2019-02-03T05:15:32.020Z,1010.8
2019-02-03T05:16:32.050Z,1010.85
2019-02-03T05:17:31.965Z,1010.86
2019-02-03T05:18:32.131Z,1010.88
2019-02-03T05:19:32.076Z,1010.96
2019-02-03T05:20:32.267Z,1010.99
2019-02-03T05:21:32.155Z,1010.94
2019-02-03T05:22:32.467Z,1011.01
2019-02-03T05:23:31.990Z,1010.97
2019-02-03T05:24:32.282Z,1011
2019-02-03T05:25:32.297Z,1011.01
2019-02-03T05:26:32.038Z,1011.11
2019-02-03T05:27:32.095Z,1011.06
2019-02-03T05:28:31.941Z,1011.08
2019-02-03T05:29:32.025Z,1011.04
2019-02-03T05:30:32.414Z,1011.07
2019-02-03T05:31:32.033Z,1011.17
2019-02-03T05:32:32.081Z,1011.15
2019-02-03T05:33:32.065Z,1011.19
2019-02-03T05:34:32.256Z,1011.25
2019-02-03T05:35:32.154Z,1011.22
2019-02-03T05:36:32.020Z,1011.28
2019-02-03T05:37:32.144Z,1011.29
2019-02-03T05:38:32.367Z,1011.34
2019-02-03T05:39:32.197Z,1011.4
2019-02-03T05:40:32.056Z,1011.37
2019-02-03T05:41:32.102Z,1011.33
2019-02-03T05:42:31.924Z,1011.34
2019-02-03T05:43:33.717Z,1011.4
2019-02-03T05:44:32.044Z,1011.4
2019-02-03T05:45:32.120Z,1011.44
2019-02-03T05:46:32.423Z,1011.48
2019-02-03T05:47:32.340Z,1011.46
2019-02-03T05:48:32.038Z,1011.5
2019-02-03T05:49:32.042Z,1011.47
2019-02-03T05:50:32.364Z,1011.56
2019-02-03T05:51:32.695Z,1011.56
2019-02-03T05:52:32.073Z,1011.61
2019-02-03T05:53:32.044Z,1011.65
2019-02-03T05:54:32.270Z,1011.69
2019-02-03T05:55:32.194Z,1011.65
2019-02-03T05:56:32.539Z,1011.74
2019-02-03T05:57:32.134Z,1011.71
2019-02-03T05:58:31.917Z,1011.8
2019-02-03T05:59:31.875Z,1011.78
2019-02-03T06:00:32.137Z,1011.73
2019-02-03T06:01:32.690Z,1011.75
2019-02-03T06:02:32.428Z,1011.79
2019-02-03T06:03:32.161Z,1011.87
2019-02-03T06:04:31.996Z,1011.84
2019-02-03T06:05:32.049Z,1011.86
2019-02-03T06:06:31.894Z,1011.87
2019-02-03T06:07:32.441Z,1011.85
2019-02-03T06:08:32.398Z,1011.89
2019-02-03T06:09:37.112Z,1011.91
2019-02-03T06:10:32.388Z,1011.93
2019-02-03T06:11:31.972Z,1011.95
2019-02-03T06:12:32.202Z,1011.95
2019-02-03T06:13:32.033Z,1012.05
2019-02-03T06:14:32.312Z,1012.06
2019-02-03T06:15:32.244Z,1012.03
2019-02-03T06:16:31.946Z,1012.06
2019-02-03T06:17:31.908Z,1012.11
2019-02-03T06:18:32.737Z,1012.14
2019-02-03T06:19:32.384Z,1012.26
2019-02-03T06:20:32.488Z,1012.22
2019-02-03T06:21:31.986Z,1012.29
2019-02-03T06:22:32.408Z,1012.28
2019-02-03T06:23:32.279Z,1012.32
2019-02-03T06:24:32.325Z,1012.35
2019-02-03T06:25:32.417Z,1012.34
2019-02-03T06:26:32.491Z,1012.38
2019-02-03T06:27:32.613Z,1012.4
2019-02-03T06:28:32.137Z,1012.43
2019-02-03T06:29:32.129Z,1012.43
2019-02-03T06:30:32.558Z,1012.43
2019-02-03T06:31:33.730Z,1012.52
2019-02-03T06:32:31.946Z,1012.57
2019-02-03T06:33:32.425Z,1012.54
2019-02-03T06:34:32.202Z,1012.52
2019-02-03T06:35:31.986Z,1012.55
2019-02-03T06:36:32.156Z,1012.54
2019-02-03T06:37:32.002Z,1012.62
2019-02-03T06:38:32.321Z,1012.67
2019-02-03T06:39:31.973Z,1012.67
2019-02-03T06:40:31.979Z,1012.72
2019-02-03T06:41:32.109Z,1012.72
2019-02-03T06:42:32.138Z,1012.76
2019-02-03T06:43:34.161Z,1012.86
2019-02-03T06:44:31.851Z,1012.79
2019-02-03T06:45:33.762Z,1012.85
2019-02-03T06:46:32.047Z,1012.87
2019-02-03T06:47:32.245Z,1012.9
2019-02-03T06:48:32.063Z,1012.91
2019-02-03T06:49:32.251Z,1012.99
2019-02-03T06:50:32.095Z,1013.03
2019-02-03T06:51:32.766Z,1013.06
2019-02-03T06:52:31.885Z,1013.09
2019-02-03T06:53:32.190Z,1013.13
2019-02-03T06:54:32.251Z,1013.2
2019-02-03T06:55:32.019Z,1013.25
2019-02-03T06:56:31.853Z,1013.29
2019-02-03T06:57:32.141Z,1013.29
2019-02-03T06:58:32.305Z,1013.4
2019-02-03T06:59:32.619Z,1013.38
2019-02-03T07:00:32.092Z,1013.43
2019-02-03T07:01:31.985Z,1013.45
2019-02-03T07:02:32.079Z,1013.51
2019-02-03T07:03:31.923Z,1013.53
2019-02-03T07:04:32.075Z,1013.55
2019-02-03T07:05:31.863Z,1013.57
2019-02-03T07:06:32.260Z,1013.64
2019-02-03T07:07:32.470Z,1013.65
2019-02-03T07:08:31.959Z,1013.63
2019-02-03T07:09:31.966Z,1013.66
2019-02-03T07:10:31.827Z,1013.7
2019-02-03T07:11:31.827Z,1013.71
2019-02-03T07:12:32.001Z,1013.77
2019-02-03T07:13:31.850Z,1013.84
2019-02-03T07:14:31.789Z,1013.82
2019-02-03T07:15:32.137Z,1013.89
2019-02-03T07:16:42.825Z,1013.91
2019-02-03T07:17:32.146Z,1013.93
2019-02-03T07:18:31.900Z,1013.94
2019-02-03T07:19:32.263Z,1014.02
2019-02-03T07:20:31.992Z,1014.05
2019-02-03T07:21:32.076Z,1014.05
2019-02-03T07:22:32.272Z,1014.07
2019-02-03T07:23:32.474Z,1014.08
2019-02-03T07:24:31.909Z,1014.09
2019-02-03T07:25:31.980Z,1014.1
2019-02-03T07:26:31.790Z,1014.11
2019-02-03T07:27:31.836Z,1014.15
2019-02-03T07:28:32.010Z,1014.19
2019-02-03T07:29:32.333Z,1014.25
2019-02-03T07:30:31.899Z,1014.3
2019-02-03T07:31:32.125Z,1014.29
2019-02-03T07:32:32.002Z,1014.35
2019-02-03T07:33:31.712Z,1014.32
2019-02-03T07:34:32.323Z,1014.34
2019-02-03T07:35:31.750Z,1014.36
2019-02-03T07:36:32.160Z,1014.36
2019-02-03T07:37:31.882Z,1014.41
2019-02-03T07:38:32.083Z,1014.39
2019-02-03T07:39:32.583Z,1014.42
2019-02-03T07:40:31.905Z,1014.46
2019-02-03T07:41:31.738Z,1014.47
2019-02-03T07:42:32.006Z,1014.48
2019-02-03T07:43:32.004Z,1014.47
2019-02-03T07:44:33.042Z,1014.51
2019-02-03T07:45:31.838Z,1014.53
2019-02-03T07:46:32.231Z,1014.54
2019-02-03T07:47:32.842Z,1014.55
2019-02-03T07:48:33.998Z,1014.6
2019-02-03T07:49:32.192Z,1014.56
2019-02-03T07:50:31.991Z,1014.59
2019-02-03T07:51:32.156Z,1014.62
2019-02-03T07:52:31.741Z,1014.62
2019-02-03T07:53:32.083Z,1014.66
2019-02-03T07:54:31.765Z,1014.65
2019-02-03T07:55:32.077Z,1014.71
2019-02-03T07:56:31.696Z,1014.72
2019-02-03T07:57:32.042Z,1014.74
2019-02-03T07:58:31.759Z,1014.79
2019-02-03T07:59:32.101Z,1014.8
2019-02-03T08:00:31.923Z,1014.78
2019-02-03T08:01:31.825Z,1014.83
2019-02-03T08:02:32.632Z,1014.87
2019-02-03T08:03:32.339Z,1014.85
2019-02-03T08:04:32.366Z,1014.9
2019-02-03T08:05:32.367Z,1014.92
2019-02-03T08:06:32.059Z,1014.94
2019-02-03T08:07:31.919Z,1014.96
2019-02-03T08:08:31.742Z,1014.95
2019-02-03T08:09:32.487Z,1015
2019-02-03T08:10:31.789Z,1015.05
2019-02-03T08:11:32.085Z,1015.09
2019-02-03T08:12:32.018Z,1015.12
2019-02-03T08:13:32.016Z,1015.1
2019-02-03T08:14:32.132Z,1015.17
2019-02-03T08:15:33.403Z,1015.2
2019-02-03T08:16:32.098Z,1015.22
2019-02-03T08:17:31.666Z,1015.22
2019-02-03T08:18:31.951Z,1015.2
2019-02-03T08:19:32.447Z,1015.24
2019-02-03T08:20:31.646Z,1015.26
2019-02-03T08:21:32.064Z,1015.33
2019-02-03T08:22:31.728Z,1015.32
2019-02-03T08:23:31.871Z,1015.38
2019-02-03T08:24:31.755Z,1015.39
2019-02-03T08:25:31.639Z,1015.43
2019-02-03T08:26:31.757Z,1015.47
2019-02-03T08:27:31.718Z,1015.48
2019-02-03T08:28:32.633Z,1015.5
2019-02-03T08:29:31.872Z,1015.48
2019-02-03T08:30:31.665Z,1015.52
2019-02-03T08:31:31.673Z,1015.57
2019-02-03T08:32:31.893Z,1015.58
2019-02-03T08:33:33.493Z,1015.58
2019-02-03T08:34:31.703Z,1015.59
2019-02-03T08:35:32.967Z,1015.61
2019-02-03T08:36:32.529Z,1015.57
2019-02-03T08:37:31.668Z,1015.55
2019-02-03T08:38:31.728Z,1015.62
2019-02-03T08:39:31.859Z,1015.63
2019-02-03T08:40:37.711Z,1015.69
2019-02-03T08:41:31.654Z,1015.62
2019-02-03T08:42:35.472Z,1015.69
2019-02-03T08:43:31.889Z,1015.72
2019-02-03T08:44:32.082Z,1015.74
2019-02-03T08:45:31.986Z,1015.77
2019-02-03T08:46:31.653Z,1015.78
2019-02-03T08:47:32.198Z,1015.83
2019-02-03T08:48:31.681Z,1015.84
2019-02-03T08:49:32.221Z,1015.85
2019-02-03T08:50:32.562Z,1015.88
2019-02-03T08:51:32.577Z,1015.9
2019-02-03T08:52:31.876Z,1015.92
2019-02-03T08:53:31.645Z,1015.93
2019-02-03T08:54:31.657Z,1015.97
2019-02-03T08:55:31.641Z,1015.96
2019-02-03T08:56:31.735Z,1015.95
2019-02-03T08:57:39.022Z,1015.97
2019-02-03T08:58:32.821Z,1015.96
2019-02-03T08:59:32.928Z,1016.02
2019-02-03T09:00:31.855Z,1016
2019-02-03T09:01:31.691Z,1015.98
2019-02-03T09:02:32.611Z,1015.99
2019-02-03T09:03:31.767Z,1015.97
2019-02-03T09:04:31.635Z,1015.96
2019-02-03T09:05:31.679Z,1015.97
2019-02-03T09:06:31.696Z,1016.01
2019-02-03T09:07:32.163Z,1016.03
2019-02-03T09:08:32.193Z,1016.02
2019-02-03T09:09:31.634Z,1016.1
2019-02-03T09:10:31.674Z,1016.04
2019-02-03T09:11:31.717Z,1016.06
2019-02-03T09:12:33.337Z,1016.12
2019-02-03T09:13:32.234Z,1016.11
2019-02-03T09:14:31.619Z,1016.05
2019-02-03T09:15:31.994Z,1016.13
2019-02-03T09:16:31.979Z,1016.13
2019-02-03T09:17:32.062Z,1016.2
2019-02-03T09:18:31.599Z,1016.2
2019-02-03T09:19:31.870Z,1016.18
2019-02-03T09:20:31.655Z,1016.21
2019-02-03T09:21:31.681Z,1016.25
2019-02-03T09:22:31.750Z,1016.27
2019-02-03T09:23:31.644Z,1016.34
2019-02-03T09:24:31.704Z,1016.34
2019-02-03T09:25:31.555Z,1016.36
2019-02-03T09:26:32.575Z,1016.36
2019-02-03T09:27:32.122Z,1016.36
2019-02-03T09:28:31.721Z,1016.41
2019-02-03T09:29:33.137Z,1016.44
2019-02-03T09:30:32.081Z,1016.46
2019-02-03T09:31:31.804Z,1016.41
2019-02-03T09:32:33.690Z,1016.49
2019-02-03T09:33:31.930Z,1016.49
2019-02-03T09:34:31.807Z,1016.53
2019-02-03T09:35:31.814Z,1016.53
2019-02-03T09:36:31.559Z,1016.53
2019-02-03T09:37:31.572Z,1016.53
2019-02-03T09:38:31.715Z,1016.56
2019-02-03T09:39:31.647Z,1016.59
2019-02-03T09:40:31.730Z,1016.55
2019-02-03T09:41:31.833Z,1016.62
2019-02-03T09:42:32.028Z,1016.61
2019-02-03T09:43:31.777Z,1016.63
2019-02-03T09:45:31.658Z,1016.66
2019-02-03T09:46:34.949Z,1016.73
2019-02-03T09:47:31.601Z,1016.72
2019-02-03T09:48:31.551Z,1016.8
2019-02-03T09:49:31.544Z,1016.8
2019-02-03T09:50:31.982Z,1016.82
2019-02-03T09:51:31.725Z,1016.82
2019-02-03T09:52:31.828Z,1016.88
2019-02-03T09:53:31.880Z,1016.88
2019-02-03T09:54:31.629Z,1016.89
2019-02-03T09:55:31.956Z,1016.89
2019-02-03T09:56:31.715Z,1016.91
2019-02-03T09:57:31.579Z,1016.92
2019-02-03T09:58:32.442Z,1016.95
2019-02-03T09:59:31.594Z,1016.91
2019-02-03T10:00:31.821Z,1016.9
2019-02-03T10:01:33.600Z,1016.91
2019-02-03T10:02:31.936Z,1016.93
2019-02-03T10:03:31.541Z,1016.93
2019-02-03T10:04:31.492Z,1016.95
2019-02-03T10:05:31.597Z,1017
2019-02-03T10:06:31.612Z,1017
2019-02-03T10:07:31.894Z,1016.96
2019-02-03T10:08:41.062Z,1016.99
2019-02-03T10:09:33.454Z,1017.05
2019-02-03T10:10:31.936Z,1017.02
2019-02-03T10:11:31.700Z,1017.05
2019-02-03T10:12:31.550Z,1017.06
2019-02-03T10:13:32.907Z,1017.07
2019-02-03T10:14:33.986Z,1016.96
2019-02-03T10:15:32.574Z,1017.07
2019-02-03T10:16:31.667Z,1017.06
2019-02-03T10:17:31.818Z,1017.08
2019-02-03T10:18:31.623Z,1017.11
2019-02-03T10:19:31.504Z,1017.05
2019-02-03T10:20:31.494Z,1017.1
2019-02-03T10:21:32.285Z,1017.1
2019-02-03T10:22:31.486Z,1017.14
2019-02-03T10:23:31.705Z,1017.17
2019-02-03T10:24:42.632Z,1017.19
2019-02-03T10:25:31.547Z,1017.24
2019-02-03T10:26:31.532Z,1017.18
2019-02-03T10:27:31.498Z,1017.25
2019-02-03T10:28:31.751Z,1017.2
2019-02-03T10:29:31.573Z,1017.2
2019-02-03T10:30:31.469Z,1017.23
2019-02-03T10:31:31.741Z,1017.25
2019-02-03T10:32:31.502Z,1017.31
2019-02-03T10:33:31.595Z,1017.26
2019-02-03T10:34:31.607Z,1017.27
2019-02-03T10:35:31.478Z,1017.36
2019-02-03T10:36:31.666Z,1017.36
2019-02-03T10:37:31.518Z,1017.34
2019-02-03T10:38:31.481Z,1017.33
2019-02-03T10:39:33.280Z,1017.31
2019-02-03T10:40:31.901Z,1017.36
2019-02-03T10:41:31.578Z,1017.41
2019-02-03T10:42:31.677Z,1017.42
2019-02-03T10:43:31.714Z,1017.39
2019-02-03T10:44:31.524Z,1017.46
2019-02-03T10:45:33.300Z,1017.47
2019-02-03T10:46:31.686Z,1017.49
2019-02-03T10:47:31.487Z,1017.47
2019-02-03T10:48:31.676Z,1017.53
2019-02-03T10:49:31.712Z,1017.49
2019-02-03T10:50:32.014Z,1017.5
2019-02-03T10:51:31.568Z,1017.58
2019-02-03T10:52:31.477Z,1017.55
2019-02-03T10:53:31.439Z,1017.5
2019-02-03T10:54:31.794Z,1017.53
2019-02-03T10:55:31.431Z,1017.56
2019-02-03T10:56:31.564Z,1017.59
2019-02-03T10:57:31.424Z,1017.54
2019-02-03T10:58:31.884Z,1017.56
2019-02-03T10:59:31.621Z,1017.55
2019-02-03T11:00:31.582Z,1017.55
2019-02-03T11:01:31.655Z,1017.63
2019-02-03T11:02:31.744Z,1017.64
2019-02-03T11:03:31.583Z,1017.64
2019-02-03T11:04:31.550Z,1017.64
2019-02-03T11:05:31.496Z,1017.62
2019-02-03T11:06:31.526Z,1017.67
2019-02-03T11:07:31.580Z,1017.66
2019-02-03T11:08:32.100Z,1017.69
2019-02-03T11:09:31.746Z,1017.69
2019-02-03T11:10:32.119Z,1017.67
2019-02-03T11:11:37.101Z,1017.72
2019-02-03T11:12:31.614Z,1017.74
2019-02-03T11:13:31.896Z,1017.75
2019-02-03T11:14:31.432Z,1017.75
2019-02-03T11:15:31.591Z,1017.7
2019-02-03T11:16:31.424Z,1017.76
2019-02-03T11:17:32.301Z,1017.79
2019-02-03T11:18:31.403Z,1017.78
2019-02-03T11:19:31.548Z,1017.79
2019-02-03T11:20:31.487Z,1017.83
2019-02-03T11:21:32.749Z,1017.84
2019-02-03T11:22:31.435Z,1017.82
2019-02-03T11:23:32.011Z,1017.84
2019-02-03T11:24:31.542Z,1017.85
2019-02-03T11:25:32.121Z,1017.86
2019-02-03T11:26:31.573Z,1017.86
2019-02-03T11:27:31.561Z,1017.9
2019-02-03T11:28:31.774Z,1017.91
2019-02-03T11:29:31.602Z,1017.88
2019-02-03T11:30:31.697Z,1017.92
2019-02-03T11:31:31.484Z,1017.89
2019-02-03T11:32:31.520Z,1017.89
2019-02-03T11:33:31.473Z,1017.9
2019-02-03T11:34:31.565Z,1017.9
2019-02-03T11:35:31.371Z,1017.87
2019-02-03T11:36:32.132Z,1017.9
2019-02-03T11:37:31.460Z,1017.96
2019-02-03T11:38:31.909Z,1017.97
2019-02-03T11:39:32.069Z,1017.93
2019-02-03T11:40:31.493Z,1017.91
2019-02-03T11:41:31.449Z,1017.96
2019-02-03T11:42:31.730Z,1017.94
2019-02-03T11:43:31.389Z,1017.98
2019-02-03T11:44:31.653Z,1017.99
2019-02-03T11:45:31.707Z,1017.96
2019-02-03T11:46:31.518Z,1018.03
2019-02-03T11:47:31.402Z,1018.04
2019-02-03T11:48:31.476Z,1018.08
2019-02-03T11:49:32.059Z,1018.06
2019-02-03T11:50:32.079Z,1018.06
2019-02-03T11:51:31.458Z,1018.09
2019-02-03T11:52:31.447Z,1018.1
2019-02-03T11:53:31.758Z,1018.11
2019-02-03T11:54:31.660Z,1018.13
2019-02-03T11:55:31.474Z,1018.12
2019-02-03T11:56:31.353Z,1018.22
2019-02-03T11:57:31.569Z,1018.17
2019-02-03T11:58:31.392Z,1018.24
2019-02-03T11:59:31.752Z,1018.21
2019-02-03T12:00:31.887Z,1018.23
2019-02-03T12:01:31.515Z,1018.25
2019-02-03T12:02:42.390Z,1018.23
2019-02-03T12:03:32.232Z,1018.25
2019-02-03T12:04:31.519Z,1018.25
2019-02-03T12:05:31.722Z,1018.22
2019-02-03T12:06:32.051Z,1018.23
2019-02-03T12:07:31.339Z,1018.25
2019-02-03T12:08:31.672Z,1018.23
2019-02-03T12:09:31.796Z,1018.21